sensor_id;sensor_type;location;lat;lon;timestamp;temperature;humidity
68943;DHT22;60852;52.190;4.422;2023-08-30T00:00:09;17.28;70.18
68943;DHT22;60852;52.190;4.422;2023-08-30T00:02:35;17.27;70.41
68943;DHT22;60852;52.190;4.422;2023-08-30T00:05:03;17.32;70.57
68943;DHT22;60852;52.190;4.422;2023-08-30T00:07:29;17.39;70.46
68943;DHT22;60852;52.190;4.422;2023-08-30T00:09:54;17.38;70.43
68943;DHT22;60852;52.190;4.422;2023-08-30T00:12:20;17.38;70.59
68943;DHT22;60852;52.190;4.422;2023-08-30T00:14:45;17.41;70.50
68943;DHT22;60852;52.190;4.422;2023-08-30T00:17:11;17.35;70.55
68943;DHT22;60852;52.190;4.422;2023-08-30T00:19:36;17.32;70.71
68943;DHT22;60852;52.190;4.422;2023-08-30T00:22:02;17.28;70.85
68943;DHT22;60852;52.190;4.422;2023-08-30T00:24:28;17.31;70.82
68943;DHT22;60852;52.190;4.422;2023-08-30T00:26:53;17.27;70.95
68943;DHT22;60852;52.190;4.422;2023-08-30T00:29:19;17.27;71.01
68943;DHT22;60852;52.190;4.422;2023-08-30T00:31:44;17.27;71.13
68943;DHT22;60852;52.190;4.422;2023-08-30T00:34:10;17.25;71.03
68943;DHT22;60852;52.190;4.422;2023-08-30T00:36:35;17.28;71.06
68943;DHT22;60852;52.190;4.422;2023-08-30T00:39:02;17.27;71.08
68943;DHT22;60852;52.190;4.422;2023-08-30T00:41:29;17.25;71.15
68943;DHT22;60852;52.190;4.422;2023-08-30T00:43:54;17.34;71.28
68943;DHT22;60852;52.190;4.422;2023-08-30T00:46:20;17.27;71.29
68943;DHT22;60852;52.190;4.422;2023-08-30T00:48:46;17.27;71.52
68943;DHT22;60852;52.190;4.422;2023-08-30T00:51:12;17.31;71.39
68943;DHT22;60852;52.190;4.422;2023-08-30T00:53:37;17.35;71.34
68943;DHT22;60852;52.190;4.422;2023-08-30T00:56:03;17.27;71.50
68943;DHT22;60852;52.190;4.422;2023-08-30T00:58:29;17.28;71.49
68943;DHT22;60852;52.190;4.422;2023-08-30T01:00:55;17.30;71.67
68943;DHT22;60852;52.190;4.422;2023-08-30T01:03:20;17.36;71.42
68943;DHT22;60852;52.190;4.422;2023-08-30T01:05:47;17.43;71.39
68943;DHT22;60852;52.190;4.422;2023-08-30T01:08:13;17.46;71.22
68943;DHT22;60852;52.190;4.422;2023-08-30T01:13:10;17.38;71.73
68943;DHT22;60852;52.190;4.422;2023-08-30T01:15:38;17.45;71.68
68943;DHT22;60852;52.190;4.422;2023-08-30T01:18:06;17.43;71.59
68943;DHT22;60852;52.190;4.422;2023-08-30T01:20:35;17.43;71.67
68943;DHT22;60852;52.190;4.422;2023-08-30T01:23:05;17.41;71.79
68943;DHT22;60852;52.190;4.422;2023-08-30T01:26:01;17.36;71.95
68943;DHT22;60852;52.190;4.422;2023-08-30T01:28:31;17.28;72.25
68943;DHT22;60852;52.190;4.422;2023-08-30T01:30:58;17.34;72.28
68943;DHT22;60852;52.190;4.422;2023-08-30T01:33:25;17.32;72.19
68943;DHT22;60852;52.190;4.422;2023-08-30T01:35:59;17.32;72.25
68943;DHT22;60852;52.190;4.422;2023-08-30T01:38:29;17.34;72.25
68943;DHT22;60852;52.190;4.422;2023-08-30T01:40:59;17.27;72.36
68943;DHT22;60852;52.190;4.422;2023-08-30T01:43:28;17.32;72.51
68943;DHT22;60852;52.190;4.422;2023-08-30T01:45:56;17.35;72.32
68943;DHT22;60852;52.190;4.422;2023-08-30T01:48:24;17.38;72.46
68943;DHT22;60852;52.190;4.422;2023-08-30T01:50:50;17.48;72.43
68943;DHT22;60852;52.190;4.422;2023-08-30T01:53:16;17.51;72.30
68943;DHT22;60852;52.190;4.422;2023-08-30T01:55:43;17.55;72.23
68943;DHT22;60852;52.190;4.422;2023-08-30T01:58:09;17.59;72.03
68943;DHT22;60852;52.190;4.422;2023-08-30T02:00:35;17.61;72.08
68943;DHT22;60852;52.190;4.422;2023-08-30T02:03:11;17.61;72.05
68943;DHT22;60852;52.190;4.422;2023-08-30T02:08:37;17.56;72.26
68943;DHT22;60852;52.190;4.422;2023-08-30T02:11:09;17.53;72.23
68943;DHT22;60852;52.190;4.422;2023-08-30T02:13:39;17.55;72.33
68943;DHT22;60852;52.190;4.422;2023-08-30T02:16:08;17.55;72.32
68943;DHT22;60852;52.190;4.422;2023-08-30T02:18:35;17.53;72.46
68943;DHT22;60852;52.190;4.422;2023-08-30T02:21:02;17.51;72.49
68943;DHT22;60852;52.190;4.422;2023-08-30T02:23:27;17.46;72.63
68943;DHT22;60852;52.190;4.422;2023-08-30T02:25:54;17.45;72.66
68943;DHT22;60852;52.190;4.422;2023-08-30T02:28:20;17.45;72.82
68943;DHT22;60852;52.190;4.422;2023-08-30T02:30:45;17.45;73.00
68943;DHT22;60852;52.190;4.422;2023-08-30T02:33:11;17.49;73.01
68943;DHT22;60852;52.190;4.422;2023-08-30T02:35:36;17.53;72.95
68943;DHT22;60852;52.190;4.422;2023-08-30T02:38:02;17.58;72.79
68943;DHT22;60852;52.190;4.422;2023-08-30T02:40:30;17.49;72.93
68943;DHT22;60852;52.190;4.422;2023-08-30T02:42:57;17.35;73.35
68943;DHT22;60852;52.190;4.422;2023-08-30T02:45:22;17.32;73.73
68943;DHT22;60852;52.190;4.422;2023-08-30T02:47:48;17.28;73.82
68943;DHT22;60852;52.190;4.422;2023-08-30T02:50:14;17.20;74.06
68943;DHT22;60852;52.190;4.422;2023-08-30T02:52:39;17.18;74.05
68943;DHT22;60852;52.190;4.422;2023-08-30T02:55:05;17.18;74.17
68943;DHT22;60852;52.190;4.422;2023-08-30T02:57:31;17.18;74.08
68943;DHT22;60852;52.190;4.422;2023-08-30T02:59:56;17.15;73.90
68943;DHT22;60852;52.190;4.422;2023-08-30T03:02:22;17.12;73.95
68943;DHT22;60852;52.190;4.422;2023-08-30T03:04:47;17.06;74.13
68943;DHT22;60852;52.190;4.422;2023-08-30T03:07:13;17.04;74.13
68943;DHT22;60852;52.190;4.422;2023-08-30T03:09:38;17.01;74.19
68943;DHT22;60852;52.190;4.422;2023-08-30T03:12:04;16.97;74.28
68943;DHT22;60852;52.190;4.422;2023-08-30T03:14:30;16.95;74.44
68943;DHT22;60852;52.190;4.422;2023-08-30T03:16:55;17.01;74.42
68943;DHT22;60852;52.190;4.422;2023-08-30T03:19:21;17.07;74.33
68943;DHT22;60852;52.190;4.422;2023-08-30T03:21:46;17.15;74.20
68943;DHT22;60852;52.190;4.422;2023-08-30T03:24:12;17.15;74.04
68943;DHT22;60852;52.190;4.422;2023-08-30T03:26:39;17.21;73.84
68943;DHT22;60852;52.190;4.422;2023-08-30T03:29:06;17.20;73.61
68943;DHT22;60852;52.190;4.422;2023-08-30T03:31:31;17.18;73.55
68943;DHT22;60852;52.190;4.422;2023-08-30T03:33:57;17.10;73.51
68943;DHT22;60852;52.190;4.422;2023-08-30T03:36:22;17.01;73.84
68943;DHT22;60852;52.190;4.422;2023-08-30T03:38:48;17.06;73.94
68943;DHT22;60852;52.190;4.422;2023-08-30T03:41:14;17.07;73.61
68943;DHT22;60852;52.190;4.422;2023-08-30T03:43:39;17.01;73.78
68943;DHT22;60852;52.190;4.422;2023-08-30T03:46:05;16.99;73.84
68943;DHT22;60852;52.190;4.422;2023-08-30T03:48:31;16.90;74.00
68943;DHT22;60852;52.190;4.422;2023-08-30T03:50:58;16.87;74.26
68943;DHT22;60852;52.190;4.422;2023-08-30T03:53:24;16.91;74.19
68943;DHT22;60852;52.190;4.422;2023-08-30T03:55:50;16.88;73.92
68943;DHT22;60852;52.190;4.422;2023-08-30T03:58:17;16.81;74.09
68943;DHT22;60852;52.190;4.422;2023-08-30T04:00:43;16.74;73.98
68943;DHT22;60852;52.190;4.422;2023-08-30T04:03:09;16.72;74.00
68943;DHT22;60852;52.190;4.422;2023-08-30T04:05:36;16.64;73.96
68943;DHT22;60852;52.190;4.422;2023-08-30T04:08:03;16.57;73.90
68943;DHT22;60852;52.190;4.422;2023-08-30T04:10:28;16.53;73.81
68943;DHT22;60852;52.190;4.422;2023-08-30T04:12:54;16.49;73.99
68943;DHT22;60852;52.190;4.422;2023-08-30T04:15:19;16.48;74.11
68943;DHT22;60852;52.190;4.422;2023-08-30T04:17:45;16.48;74.24
68943;DHT22;60852;52.190;4.422;2023-08-30T04:20:10;16.46;74.28
68943;DHT22;60852;52.190;4.422;2023-08-30T04:22:36;16.48;74.20
68943;DHT22;60852;52.190;4.422;2023-08-30T04:25:03;16.48;74.20
68943;DHT22;60852;52.190;4.422;2023-08-30T04:27:29;16.48;74.23
68943;DHT22;60852;52.190;4.422;2023-08-30T04:29:54;16.51;74.30
68943;DHT22;60852;52.190;4.422;2023-08-30T04:32:20;16.52;74.20
68943;DHT22;60852;52.190;4.422;2023-08-30T04:34:45;16.48;74.28
68943;DHT22;60852;52.190;4.422;2023-08-30T04:37:11;16.46;74.36
68943;DHT22;60852;52.190;4.422;2023-08-30T04:39:37;16.42;74.45
68943;DHT22;60852;52.190;4.422;2023-08-30T04:42:02;16.48;74.54
68943;DHT22;60852;52.190;4.422;2023-08-30T04:44:29;16.52;74.45
68943;DHT22;60852;52.190;4.422;2023-08-30T04:46:54;16.51;74.45
68943;DHT22;60852;52.190;4.422;2023-08-30T04:49:21;16.52;74.46
68943;DHT22;60852;52.190;4.422;2023-08-30T04:51:47;16.53;74.43
68943;DHT22;60852;52.190;4.422;2023-08-30T04:54:12;16.53;74.26
68943;DHT22;60852;52.190;4.422;2023-08-30T04:56:38;16.53;74.37
68943;DHT22;60852;52.190;4.422;2023-08-30T04:59:03;16.52;74.44
68943;DHT22;60852;52.190;4.422;2023-08-30T05:01:30;16.49;74.26
68943;DHT22;60852;52.190;4.422;2023-08-30T05:03:55;16.41;74.75
68943;DHT22;60852;52.190;4.422;2023-08-30T05:06:21;16.36;75.42
68943;DHT22;60852;52.190;4.422;2023-08-30T05:08:46;16.33;75.95
68943;DHT22;60852;52.190;4.422;2023-08-30T05:11:12;16.36;76.30
68943;DHT22;60852;52.190;4.422;2023-08-30T05:13:37;16.32;76.71
68943;DHT22;60852;52.190;4.422;2023-08-30T05:16:03;16.28;77.16
68943;DHT22;60852;52.190;4.422;2023-08-30T05:18:29;16.25;77.48
68943;DHT22;60852;52.190;4.422;2023-08-30T05:20:54;16.14;77.84
68943;DHT22;60852;52.190;4.422;2023-08-30T05:23:20;16.04;78.53
68943;DHT22;60852;52.190;4.422;2023-08-30T05:25:45;16.00;78.91
68943;DHT22;60852;52.190;4.422;2023-08-30T05:28:12;15.97;79.16
68943;DHT22;60852;52.190;4.422;2023-08-30T05:30:41;15.91;79.31
68943;DHT22;60852;52.190;4.422;2023-08-30T05:33:06;15.84;79.86
68943;DHT22;60852;52.190;4.422;2023-08-30T05:35:32;15.80;80.05
68943;DHT22;60852;52.190;4.422;2023-08-30T05:37:57;15.81;80.54
68943;DHT22;60852;52.190;4.422;2023-08-30T05:40:23;15.84;80.57
68943;DHT22;60852;52.190;4.422;2023-08-30T05:42:49;15.75;80.54
68943;DHT22;60852;52.190;4.422;2023-08-30T05:45:16;15.71;80.89
68943;DHT22;60852;52.190;4.422;2023-08-30T05:47:41;15.61;81.38
68943;DHT22;60852;52.190;4.422;2023-08-30T05:50:07;15.63;81.61
68943;DHT22;60852;52.190;4.422;2023-08-30T05:52:33;15.68;81.79
68943;DHT22;60852;52.190;4.422;2023-08-30T05:54:59;15.64;81.67
68943;DHT22;60852;52.190;4.422;2023-08-30T05:57:24;15.61;82.03
68943;DHT22;60852;52.190;4.422;2023-08-30T05:59:51;15.67;82.62
68943;DHT22;60852;52.190;4.422;2023-08-30T06:02:16;15.74;82.59
68943;DHT22;60852;52.190;4.422;2023-08-30T06:04:42;15.78;82.32
68943;DHT22;60852;52.190;4.422;2023-08-30T06:07:07;15.77;82.46
68943;DHT22;60852;52.190;4.422;2023-08-30T06:09:33;15.75;82.82
68943;DHT22;60852;52.190;4.422;2023-08-30T06:11:59;15.77;82.82
68943;DHT22;60852;52.190;4.422;2023-08-30T06:14:24;15.81;82.97
68943;DHT22;60852;52.190;4.422;2023-08-30T06:16:50;15.81;83.01
68943;DHT22;60852;52.190;4.422;2023-08-30T06:19:15;15.85;82.92
68943;DHT22;60852;52.190;4.422;2023-08-30T06:21:41;15.80;82.82
68943;DHT22;60852;52.190;4.422;2023-08-30T06:24:06;15.71;82.94
68943;DHT22;60852;52.190;4.422;2023-08-30T06:26:32;15.73;82.98
68943;DHT22;60852;52.190;4.422;2023-08-30T06:28:58;15.73;83.16
68943;DHT22;60852;52.190;4.422;2023-08-30T06:31:24;15.77;83.25
68943;DHT22;60852;52.190;4.422;2023-08-30T06:33:49;15.75;83.35
68943;DHT22;60852;52.190;4.422;2023-08-30T06:36:16;15.80;83.58
68943;DHT22;60852;52.190;4.422;2023-08-30T06:38:43;15.84;83.56
68943;DHT22;60852;52.190;4.422;2023-08-30T06:41:08;15.85;83.24
68943;DHT22;60852;52.190;4.422;2023-08-30T06:43:34;15.85;83.29
68943;DHT22;60852;52.190;4.422;2023-08-30T06:45:59;15.88;83.34
68943;DHT22;60852;52.190;4.422;2023-08-30T06:48:25;15.95;83.56
68943;DHT22;60852;52.190;4.422;2023-08-30T06:50:50;16.04;83.49
68943;DHT22;60852;52.190;4.422;2023-08-30T06:53:16;16.09;83.36
68943;DHT22;60852;52.190;4.422;2023-08-30T06:55:41;16.12;83.38
68943;DHT22;60852;52.190;4.422;2023-08-30T06:58:07;16.12;82.92
68943;DHT22;60852;52.190;4.422;2023-08-30T07:00:32;16.01;82.98
68943;DHT22;60852;52.190;4.422;2023-08-30T07:02:58;15.93;83.47
68943;DHT22;60852;52.190;4.422;2023-08-30T07:05:23;16.08;83.82
68943;DHT22;60852;52.190;4.422;2023-08-30T07:07:49;16.15;83.81
68943;DHT22;60852;52.190;4.422;2023-08-30T07:10:15;16.22;83.60
68943;DHT22;60852;52.190;4.422;2023-08-30T07:12:40;16.35;83.74
68943;DHT22;60852;52.190;4.422;2023-08-30T07:15:06;16.41;83.46
68943;DHT22;60852;52.190;4.422;2023-08-30T07:17:32;16.45;83.20
68943;DHT22;60852;52.190;4.422;2023-08-30T07:19:57;16.39;82.84
68943;DHT22;60852;52.190;4.422;2023-08-30T07:22:23;16.38;83.20
68943;DHT22;60852;52.190;4.422;2023-08-30T07:24:48;16.39;83.07
68943;DHT22;60852;52.190;4.422;2023-08-30T07:27:14;16.48;83.08
68943;DHT22;60852;52.190;4.422;2023-08-30T07:29:39;16.49;82.92
68943;DHT22;60852;52.190;4.422;2023-08-30T07:32:06;16.48;82.86
68943;DHT22;60852;52.190;4.422;2023-08-30T07:34:32;16.48;82.51
68943;DHT22;60852;52.190;4.422;2023-08-30T07:36:57;16.39;82.75
68943;DHT22;60852;52.190;4.422;2023-08-30T07:39:23;16.32;83.14
68943;DHT22;60852;52.190;4.422;2023-08-30T07:41:49;16.29;83.12
68943;DHT22;60852;52.190;4.422;2023-08-30T07:44:14;16.25;83.06
68943;DHT22;60852;52.190;4.422;2023-08-30T07:46:40;16.30;83.37
68943;DHT22;60852;52.190;4.422;2023-08-30T07:49:06;16.26;83.23
68943;DHT22;60852;52.190;4.422;2023-08-30T07:51:31;16.32;83.29
68943;DHT22;60852;52.190;4.422;2023-08-30T07:53:57;16.41;83.15
68943;DHT22;60852;52.190;4.422;2023-08-30T07:56:22;16.42;83.10
68943;DHT22;60852;52.190;4.422;2023-08-30T07:58:48;16.41;83.18
68943;DHT22;60852;52.190;4.422;2023-08-30T08:01:14;16.43;82.88
68943;DHT22;60852;52.190;4.422;2023-08-30T08:03:39;16.42;82.90
68943;DHT22;60852;52.190;4.422;2023-08-30T08:06:06;16.36;82.96
68943;DHT22;60852;52.190;4.422;2023-08-30T08:08:32;16.39;82.84
68943;DHT22;60852;52.190;4.422;2023-08-30T08:10:58;16.43;82.79
68943;DHT22;60852;52.190;4.422;2023-08-30T08:13:24;16.46;82.88
68943;DHT22;60852;52.190;4.422;2023-08-30T08:15:49;16.48;83.23
68943;DHT22;60852;52.190;4.422;2023-08-30T08:18:15;16.59;83.17
68943;DHT22;60852;52.190;4.422;2023-08-30T08:20:41;16.45;82.43
68943;DHT22;60852;52.190;4.422;2023-08-30T08:23:06;16.28;82.97
68943;DHT22;60852;52.190;4.422;2023-08-30T08:25:32;16.33;83.64
68943;DHT22;60852;52.190;4.422;2023-08-30T08:27:57;16.43;83.58
68943;DHT22;60852;52.190;4.422;2023-08-30T08:30:23;16.55;83.47
68943;DHT22;60852;52.190;4.422;2023-08-30T08:32:48;16.67;83.41
68943;DHT22;60852;52.190;4.422;2023-08-30T08:35:14;16.77;83.20
68943;DHT22;60852;52.190;4.422;2023-08-30T08:37:40;17.00;83.21
68943;DHT22;60852;52.190;4.422;2023-08-30T08:40:06;17.20;82.42
68943;DHT22;60852;52.190;4.422;2023-08-30T08:42:35;17.34;81.86
68943;DHT22;60852;52.190;4.422;2023-08-30T08:45:03;17.20;79.28
68943;DHT22;60852;52.190;4.422;2023-08-30T08:47:30;17.11;78.46
68943;DHT22;60852;52.190;4.422;2023-08-30T08:49:56;17.22;78.74
68943;DHT22;60852;52.190;4.422;2023-08-30T08:52:23;17.30;78.52
68943;DHT22;60852;52.190;4.422;2023-08-30T08:54:49;17.41;78.26
68943;DHT22;60852;52.190;4.422;2023-08-30T08:57:15;17.43;77.86
68943;DHT22;60852;52.190;4.422;2023-08-30T08:59:40;17.49;77.97
68943;DHT22;60852;52.190;4.422;2023-08-30T09:02:12;17.63;78.34
68943;DHT22;60852;52.190;4.422;2023-08-30T09:04:39;17.86;78.77
68943;DHT22;60852;52.190;4.422;2023-08-30T09:07:05;18.03;78.12
68943;DHT22;60852;52.190;4.422;2023-08-30T09:09:31;18.21;77.65
68943;DHT22;60852;52.190;4.422;2023-08-30T09:11:56;18.26;76.96
68943;DHT22;60852;52.190;4.422;2023-08-30T09:14:22;18.20;75.88
68943;DHT22;60852;52.190;4.422;2023-08-30T09:16:58;18.23;75.53
68943;DHT22;60852;52.190;4.422;2023-08-30T09:19:24;18.20;74.94
68943;DHT22;60852;52.190;4.422;2023-08-30T09:24:18;18.20;72.70
68943;DHT22;60852;52.190;4.422;2023-08-30T09:26:48;18.11;72.37
68943;DHT22;60852;52.190;4.422;2023-08-30T09:29:17;18.07;70.96
68943;DHT22;60852;52.190;4.422;2023-08-30T09:31:43;18.06;70.41
68943;DHT22;60852;52.190;4.422;2023-08-30T09:34:08;18.04;70.59
68943;DHT22;60852;52.190;4.422;2023-08-30T09:36:38;18.13;70.54
68943;DHT22;60852;52.190;4.422;2023-08-30T09:39:13;18.21;69.27
68943;DHT22;60852;52.190;4.422;2023-08-30T09:41:47;18.44;69.16
68943;DHT22;60852;52.190;4.422;2023-08-30T09:44:14;18.52;67.66
68943;DHT22;60852;52.190;4.422;2023-08-30T09:46:44;18.38;67.11
68943;DHT22;60852;52.190;4.422;2023-08-30T09:49:11;18.44;68.64
68943;DHT22;60852;52.190;4.422;2023-08-30T09:51:41;18.60;69.21
68943;DHT22;60852;52.190;4.422;2023-08-30T09:56:41;18.87;68.94
68943;DHT22;60852;52.190;4.422;2023-08-30T09:59:06;18.75;67.56
68943;DHT22;60852;52.190;4.422;2023-08-30T10:01:33;18.78;68.38
68943;DHT22;60852;52.190;4.422;2023-08-30T10:04:02;18.78;68.06
68943;DHT22;60852;52.190;4.422;2023-08-30T10:06:30;18.88;67.17
68943;DHT22;60852;52.190;4.422;2023-08-30T10:08:58;18.99;67.41
68943;DHT22;60852;52.190;4.422;2023-08-30T10:11:24;19.00;66.81
68943;DHT22;60852;52.190;4.422;2023-08-30T10:13:51;19.08;66.46
68943;DHT22;60852;52.190;4.422;2023-08-30T10:16:24;19.39;65.65
68943;DHT22;60852;52.190;4.422;2023-08-30T10:18:54;19.57;66.40
68943;DHT22;60852;52.190;4.422;2023-08-30T10:21:24;19.88;63.97
68943;DHT22;60852;52.190;4.422;2023-08-30T10:23:51;20.43;63.41
68943;DHT22;60852;52.190;4.422;2023-08-30T10:26:24;20.15;60.90
68943;DHT22;60852;52.190;4.422;2023-08-30T10:28:55;20.17;60.62
68943;DHT22;60852;52.190;4.422;2023-08-30T10:31:21;20.26;59.29
68943;DHT22;60852;52.190;4.422;2023-08-30T10:33:57;20.49;57.87
68943;DHT22;60852;52.190;4.422;2023-08-30T10:36:24;20.76;56.06
68943;DHT22;60852;52.190;4.422;2023-08-30T10:38:51;20.98;55.30
68943;DHT22;60852;52.190;4.422;2023-08-30T10:41:25;21.07;54.83
68943;DHT22;60852;52.190;4.422;2023-08-30T10:43:54;21.10;55.45
68943;DHT22;60852;52.190;4.422;2023-08-30T10:46:31;20.96;55.58
68943;DHT22;60852;52.190;4.422;2023-08-30T10:49:11;20.70;56.16
68943;DHT22;60852;52.190;4.422;2023-08-30T10:51:38;20.86;55.44
68943;DHT22;60852;52.190;4.422;2023-08-30T10:54:13;20.97;55.16
68943;DHT22;60852;52.190;4.422;2023-08-30T10:59:19;20.93;56.22
68943;DHT22;60852;52.190;4.422;2023-08-30T11:01:49;20.86;55.51
68943;DHT22;60852;52.190;4.422;2023-08-30T11:04:18;20.80;56.42
68943;DHT22;60852;52.190;4.422;2023-08-30T11:06:46;20.79;56.30
68943;DHT22;60852;52.190;4.422;2023-08-30T11:09:13;20.86;55.84
68943;DHT22;60852;52.190;4.422;2023-08-30T11:11:40;20.96;57.27
68943;DHT22;60852;52.190;4.422;2023-08-30T11:14:09;20.81;57.18
68943;DHT22;60852;52.190;4.422;2023-08-30T11:16:36;20.69;56.63
68943;DHT22;60852;52.190;4.422;2023-08-30T11:19:03;20.47;57.03
68943;DHT22;60852;52.190;4.422;2023-08-30T11:21:34;20.45;56.83
68943;DHT22;60852;52.190;4.422;2023-08-30T11:24:00;20.70;57.42
68943;DHT22;60852;52.190;4.422;2023-08-30T11:26:26;20.97;55.98
68943;DHT22;60852;52.190;4.422;2023-08-30T11:28:51;20.94;55.47
68943;DHT22;60852;52.190;4.422;2023-08-30T11:31:27;20.79;57.29
68943;DHT22;60852;52.190;4.422;2023-08-30T11:33:54;20.57;59.17
68943;DHT22;60852;52.190;4.422;2023-08-30T11:36:23;20.42;59.71
68943;DHT22;60852;52.190;4.422;2023-08-30T11:38:49;20.30;61.43
68943;DHT22;60852;52.190;4.422;2023-08-30T11:41:16;20.17;62.58
68943;DHT22;60852;52.190;4.422;2023-08-30T11:43:43;20.09;63.53
68943;DHT22;60852;52.190;4.422;2023-08-30T11:46:09;20.15;64.19
68943;DHT22;60852;52.190;4.422;2023-08-30T11:48:35;20.28;63.72
68943;DHT22;60852;52.190;4.422;2023-08-30T11:51:01;20.28;64.05
68943;DHT22;60852;52.190;4.422;2023-08-30T11:53:27;20.07;65.10
68943;DHT22;60852;52.190;4.422;2023-08-30T11:55:53;19.94;66.25
68943;DHT22;60852;52.190;4.422;2023-08-30T11:58:19;19.95;65.82
68943;DHT22;60852;52.190;4.422;2023-08-30T12:00:46;19.82;65.30
68943;DHT22;60852;52.190;4.422;2023-08-30T12:03:15;19.81;64.25
68943;DHT22;60852;52.190;4.422;2023-08-30T12:05:45;19.73;63.86
68943;DHT22;60852;52.190;4.422;2023-08-30T12:08:31;19.81;62.81
68943;DHT22;60852;52.190;4.422;2023-08-30T12:10:57;19.71;62.57
68943;DHT22;60852;52.190;4.422;2023-08-30T12:13:28;19.88;62.12
68943;DHT22;60852;52.190;4.422;2023-08-30T12:15:55;20.05;60.94
68943;DHT22;60852;52.190;4.422;2023-08-30T12:18:22;20.05;61.05
68943;DHT22;60852;52.190;4.422;2023-08-30T12:21:07;20.08;63.05
68943;DHT22;60852;52.190;4.422;2023-08-30T12:23:33;20.11;62.47
68943;DHT22;60852;52.190;4.422;2023-08-30T12:26:07;20.15;61.08
68943;DHT22;60852;52.190;4.422;2023-08-30T12:28:37;20.08;59.57
68943;DHT22;60852;52.190;4.422;2023-08-30T12:31:03;20.04;59.83
68943;DHT22;60852;52.190;4.422;2023-08-30T12:33:30;20.05;61.31
68943;DHT22;60852;52.190;4.422;2023-08-30T12:35:56;20.11;64.02
68943;DHT22;60852;52.190;4.422;2023-08-30T12:38:22;19.94;64.78
68943;DHT22;60852;52.190;4.422;2023-08-30T12:40:49;19.75;64.46
68943;DHT22;60852;52.190;4.422;2023-08-30T12:43:16;19.53;66.26
68943;DHT22;60852;52.190;4.422;2023-08-30T12:45:44;19.53;66.50
68943;DHT22;60852;52.190;4.422;2023-08-30T12:48:14;19.60;65.62
68943;DHT22;60852;52.190;4.422;2023-08-30T12:50:42;19.50;65.06
68943;DHT22;60852;52.190;4.422;2023-08-30T12:53:08;19.34;65.42
68943;DHT22;60852;52.190;4.422;2023-08-30T12:55:34;19.41;66.72
68943;DHT22;60852;52.190;4.422;2023-08-30T12:58:00;19.27;63.96
68943;DHT22;60852;52.190;4.422;2023-08-30T13:00:26;19.29;63.41
68943;DHT22;60852;52.190;4.422;2023-08-30T13:02:52;19.26;64.08
68943;DHT22;60852;52.190;4.422;2023-08-30T13:05:18;19.30;63.50
68943;DHT22;60852;52.190;4.422;2023-08-30T13:07:44;19.30;62.86
68943;DHT22;60852;52.190;4.422;2023-08-30T13:10:10;19.29;63.42
68943;DHT22;60852;52.190;4.422;2023-08-30T13:12:37;19.09;64.11
68943;DHT22;60852;52.190;4.422;2023-08-30T13:15:05;19.00;64.24
68943;DHT22;60852;52.190;4.422;2023-08-30T13:17:31;18.96;64.81
68943;DHT22;60852;52.190;4.422;2023-08-30T13:19:57;18.75;65.55
68943;DHT22;60852;52.190;4.422;2023-08-30T13:22:24;18.68;66.29
68943;DHT22;60852;52.190;4.422;2023-08-30T13:24:50;18.85;67.16
68943;DHT22;60852;52.190;4.422;2023-08-30T13:27:15;18.92;66.09
68943;DHT22;60852;52.190;4.422;2023-08-30T13:29:41;18.85;67.74
68943;DHT22;60852;52.190;4.422;2023-08-30T13:32:06;18.98;69.62
68943;DHT22;60852;52.190;4.422;2023-08-30T13:34:32;19.05;70.04
68943;DHT22;60852;52.190;4.422;2023-08-30T13:36:57;18.67;70.65
68943;DHT22;60852;52.190;4.422;2023-08-30T13:39:23;18.69;72.34
68943;DHT22;60852;52.190;4.422;2023-08-30T13:41:48;18.68;72.59
68943;DHT22;60852;52.190;4.422;2023-08-30T13:44:14;18.67;73.33
68943;DHT22;60852;52.190;4.422;2023-08-30T13:46:40;18.64;73.31
68943;DHT22;60852;52.190;4.422;2023-08-30T13:49:06;18.54;70.86
68943;DHT22;60852;52.190;4.422;2023-08-30T13:51:31;18.44;70.19
68943;DHT22;60852;52.190;4.422;2023-08-30T13:53:57;18.54;70.12
68943;DHT22;60852;52.190;4.422;2023-08-30T13:56:23;18.54;65.99
68943;DHT22;60852;52.190;4.422;2023-08-30T13:58:49;18.55;66.76
68943;DHT22;60852;52.190;4.422;2023-08-30T14:01:15;18.69;66.94
68943;DHT22;60852;52.190;4.422;2023-08-30T14:03:42;18.79;64.98
68943;DHT22;60852;52.190;4.422;2023-08-30T14:06:08;18.89;66.88
68943;DHT22;60852;52.190;4.422;2023-08-30T14:08:35;18.88;65.10
68943;DHT22;60852;52.190;4.422;2023-08-30T14:11:00;19.03;66.48
68943;DHT22;60852;52.190;4.422;2023-08-30T14:13:26;19.08;64.03
68943;DHT22;60852;52.190;4.422;2023-08-30T14:18:29;19.12;64.32
68943;DHT22;60852;52.190;4.422;2023-08-30T14:20:58;19.09;62.78
68943;DHT22;60852;52.190;4.422;2023-08-30T14:23:25;19.05;63.38
68943;DHT22;60852;52.190;4.422;2023-08-30T14:26:03;19.10;64.43
68943;DHT22;60852;52.190;4.422;2023-08-30T14:28:36;19.12;61.24
68943;DHT22;60852;52.190;4.422;2023-08-30T14:31:02;19.02;61.57
68943;DHT22;60852;52.190;4.422;2023-08-30T14:33:30;18.92;62.93
68943;DHT22;60852;52.190;4.422;2023-08-30T14:35:55;18.88;63.02
68943;DHT22;60852;52.190;4.422;2023-08-30T14:38:22;18.62;62.41
68943;DHT22;60852;52.190;4.422;2023-08-30T14:41:00;18.68;63.53
68943;DHT22;60852;52.190;4.422;2023-08-30T14:43:27;18.71;62.71
68943;DHT22;60852;52.190;4.422;2023-08-30T14:46:04;18.68;61.37
68943;DHT22;60852;52.190;4.422;2023-08-30T14:48:30;18.69;61.57
68943;DHT22;60852;52.190;4.422;2023-08-30T14:50:58;18.68;62.42
68943;DHT22;60852;52.190;4.422;2023-08-30T14:53:24;18.71;62.30
68943;DHT22;60852;52.190;4.422;2023-08-30T14:55:49;18.85;61.95
68943;DHT22;60852;52.190;4.422;2023-08-30T14:58:15;18.99;62.26
68943;DHT22;60852;52.190;4.422;2023-08-30T15:00:41;19.06;60.98
68943;DHT22;60852;52.190;4.422;2023-08-30T15:03:06;19.16;60.95
68943;DHT22;60852;52.190;4.422;2023-08-30T15:05:32;19.24;61.00
68943;DHT22;60852;52.190;4.422;2023-08-30T15:07:57;19.24;61.64
68943;DHT22;60852;52.190;4.422;2023-08-30T15:10:23;19.29;61.69
68943;DHT22;60852;52.190;4.422;2023-08-30T15:12:49;19.29;61.09
68943;DHT22;60852;52.190;4.422;2023-08-30T15:15:14;19.24;61.42
68943;DHT22;60852;52.190;4.422;2023-08-30T15:17:40;19.23;60.78
68943;DHT22;60852;52.190;4.422;2023-08-30T15:20:07;19.19;60.64
68943;DHT22;60852;52.190;4.422;2023-08-30T15:22:33;19.15;60.75
68943;DHT22;60852;52.190;4.422;2023-08-30T15:24:58;19.10;60.51
68943;DHT22;60852;52.190;4.422;2023-08-30T15:27:24;19.06;59.11
68943;DHT22;60852;52.190;4.422;2023-08-30T15:29:49;18.91;58.88
68943;DHT22;60852;52.190;4.422;2023-08-30T15:32:18;18.82;59.76
68943;DHT22;60852;52.190;4.422;2023-08-30T15:34:44;18.94;60.08
68943;DHT22;60852;52.190;4.422;2023-08-30T15:37:09;19.06;60.43
68943;DHT22;60852;52.190;4.422;2023-08-30T15:39:38;19.20;59.49
68943;DHT22;60852;52.190;4.422;2023-08-30T15:42:04;19.31;59.95